createdAt,value
2023-02-03T00:00:59.056Z,24.87
2023-02-03T00:03:26.040Z,24.97
2023-02-03T00:05:52.685Z,24.73
2023-02-03T00:08:19.580Z,20.47
2023-02-03T00:10:46.581Z,21.73
2023-02-03T00:13:14.088Z,22.93
2023-02-03T00:15:40.762Z,21.77
2023-02-03T00:18:07.380Z,21.13
2023-02-03T00:20:34.220Z,22.17
2023-02-03T00:23:08.288Z,24.57
2023-02-03T00:25:35.244Z,24.23
2023-02-03T00:28:02.586Z,23.83
2023-02-03T00:30:29.580Z,22.27
2023-02-03T00:32:56.655Z,22.00
2023-02-03T00:35:23.256Z,23.30
2023-02-03T00:37:56.799Z,21.20
2023-02-03T00:40:25.504Z,24.50
2023-02-03T00:42:52.782Z,20.63
2023-02-03T00:45:19.660Z,27.43
2023-02-03T00:47:46.804Z,20.10
2023-02-03T00:50:13.549Z,18.57
2023-02-03T00:52:40.312Z,20.13
2023-02-03T00:55:07.658Z,20.10
2023-02-03T00:57:34.614Z,21.87
2023-02-03T01:00:01.270Z,21.20
2023-02-03T01:02:27.929Z,22.07
2023-02-03T01:04:54.620Z,20.30
2023-02-03T01:07:21.185Z,26.27
2023-02-03T01:09:47.884Z,22.03
2023-02-03T01:12:14.470Z,30.07
2023-02-03T01:14:41.064Z,18.57
2023-02-03T01:17:08.402Z,20.87
2023-02-03T01:19:35.076Z,21.90
2023-02-03T01:22:01.863Z,21.63
2023-02-03T01:24:30.657Z,24.90
2023-02-03T01:26:57.320Z,23.40
2023-02-03T01:29:23.979Z,26.33
2023-02-03T01:31:50.820Z,21.50
2023-02-03T01:34:18.494Z,24.10
2023-02-03T01:36:46.803Z,23.30
2023-02-03T01:39:14.122Z,22.63
2023-02-03T01:41:41.449Z,21.83
2023-02-03T01:44:45.885Z,23.23
2023-02-03T01:47:18.446Z,20.77
2023-02-03T01:50:18.803Z,22.50
2023-02-03T01:52:48.174Z,27.70
2023-02-03T01:55:18.606Z,25.30
2023-02-03T01:57:52.787Z,26.97
2023-02-03T02:00:19.953Z,23.27
2023-02-03T02:02:48.238Z,21.33
2023-02-03T02:05:20.830Z,26.93
2023-02-03T02:07:48.199Z,25.60
2023-02-03T02:10:14.924Z,22.87
2023-02-03T02:12:41.594Z,22.90
2023-02-03T02:15:08.754Z,23.57
2023-02-03T02:18:04.965Z,20.67
2023-02-03T02:21:10.951Z,21.13
2023-02-03T02:24:09.910Z,22.30
2023-02-03T02:26:57.291Z,26.27
2023-02-03T02:29:26.936Z,22.40
2023-02-03T02:32:02.202Z,23.53
2023-02-03T02:34:41.121Z,21.57
2023-02-03T02:37:15.214Z,22.73
2023-02-03T02:40:19.371Z,20.67
2023-02-03T02:43:13.673Z,22.17
2023-02-03T02:46:09.497Z,20.33
2023-02-03T02:48:48.700Z,21.70
2023-02-03T02:51:15.902Z,21.03
2023-02-03T02:53:58.155Z,16.67
2023-02-03T02:56:26.323Z,26.47
2023-02-03T02:58:54.069Z,17.00
2023-02-03T03:01:20.961Z,21.80
2023-02-03T03:03:47.679Z,23.13
2023-02-03T03:07:07.664Z,23.13
2023-02-03T03:09:39.645Z,18.00
2023-02-03T03:12:45.763Z,19.17
2023-02-03T03:15:20.258Z,18.70
2023-02-03T03:17:54.285Z,17.70
2023-02-03T03:20:26.485Z,19.33
2023-02-03T03:23:07.577Z,16.40
2023-02-03T03:25:42.334Z,17.53
2023-02-03T03:28:14.216Z,17.37
2023-02-03T03:30:41.342Z,19.13
2023-02-03T03:33:08.438Z,21.53
2023-02-03T03:36:13.525Z,15.93
2023-02-03T03:38:43.668Z,15.33
2023-02-03T03:41:20.506Z,14.90
2023-02-03T03:43:47.653Z,18.70
2023-02-03T03:46:18.155Z,14.30
2023-02-03T03:48:48.023Z,14.20
2023-02-03T03:51:19.763Z,20.60
2023-02-03T03:53:48.195Z,16.13
2023-02-03T03:56:18.653Z,13.83
2023-02-03T03:58:47.268Z,15.70
2023-02-03T04:01:14.545Z,14.50
2023-02-03T04:03:45.737Z,13.80
2023-02-03T04:06:13.331Z,11.27
2023-02-03T04:08:39.927Z,18.10
2023-02-03T04:11:07.232Z,15.57
2023-02-03T04:13:33.829Z,15.50
2023-02-03T04:16:00.617Z,10.30
2023-02-03T04:18:27.373Z,9.93
2023-02-03T04:20:53.990Z,14.87
2023-02-03T04:23:20.533Z,11.53
2023-02-03T04:25:47.224Z,11.37
2023-02-03T04:28:14.095Z,12.67
2023-02-03T04:30:40.695Z,14.27
2023-02-03T04:33:07.287Z,16.97
2023-02-03T04:35:34.025Z,9.17
2023-02-03T04:38:00.804Z,15.63
2023-02-03T04:40:27.710Z,12.37
2023-02-03T04:42:54.700Z,16.33
2023-02-03T04:45:21.459Z,13.77
2023-02-03T04:47:54.469Z,13.97
2023-02-03T04:50:21.409Z,9.17
2023-02-03T04:52:48.080Z,10.53
2023-02-03T04:55:15.182Z,12.23
2023-02-03T04:57:41.709Z,11.67
2023-02-03T05:00:08.882Z,10.03
2023-02-03T05:02:35.837Z,9.67
2023-02-03T05:05:02.561Z,10.57
2023-02-03T05:07:29.203Z,14.53
2023-02-03T05:09:55.831Z,16.83
2023-02-03T05:12:22.508Z,14.27
2023-02-03T05:14:49.100Z,11.80
2023-02-03T05:17:16.452Z,9.47
2023-02-03T05:19:43.170Z,9.20
2023-02-03T05:22:09.848Z,10.23
2023-02-03T05:24:36.563Z,12.27
2023-02-03T05:27:03.219Z,11.77
2023-02-03T05:29:29.859Z,10.17
2023-02-03T05:31:56.595Z,13.80
2023-02-03T05:34:23.459Z,12.43
2023-02-03T05:36:51.642Z,11.23
2023-02-03T05:39:18.278Z,10.07
2023-02-03T05:41:54.169Z,10.23
2023-02-03T05:44:23.238Z,11.63
2023-02-03T05:46:50.972Z,9.10
2023-02-03T05:49:17.762Z,10.07
2023-02-03T05:51:44.414Z,11.13
2023-02-03T05:54:11.108Z,13.20
2023-02-03T05:56:38.498Z,11.67
2023-02-03T05:59:05.711Z,12.67
2023-02-03T06:01:32.985Z,16.07
2023-02-03T06:04:00.507Z,10.43
2023-02-03T06:06:33.421Z,13.70
2023-02-03T06:09:05.885Z,9.93
2023-02-03T06:11:33.666Z,8.57
2023-02-03T06:14:00.394Z,14.67
2023-02-03T06:16:28.307Z,11.67
2023-02-03T06:18:59.701Z,8.33
2023-02-03T06:21:26.747Z,11.13
2023-02-03T06:23:53.433Z,12.50
2023-02-03T06:26:20.123Z,9.70
2023-02-03T06:28:46.856Z,6.63
2023-02-03T06:31:13.774Z,13.70
2023-02-03T06:33:40.434Z,9.27
2023-02-03T06:36:07.267Z,11.10
2023-02-03T06:38:34.332Z,10.57
2023-02-03T06:41:01.066Z,6.67
2023-02-03T06:43:27.703Z,11.93
2023-02-03T06:45:54.489Z,7.37
2023-02-03T06:48:21.132Z,12.43
2023-02-03T06:50:48.820Z,9.63
2023-02-03T06:53:15.572Z,12.23
2023-02-03T06:55:42.409Z,11.97
2023-02-03T06:58:09.112Z,9.67
2023-02-03T07:00:35.701Z,12.30
2023-02-03T07:03:03.086Z,9.60
2023-02-03T07:05:29.791Z,7.13
2023-02-03T07:07:56.478Z,10.73
2023-02-03T07:10:23.174Z,10.13
2023-02-03T07:12:50.936Z,13.90
2023-02-03T07:15:17.723Z,10.67
2023-02-03T07:17:44.289Z,13.07
2023-02-03T07:20:11.538Z,12.43
2023-02-03T07:22:39.451Z,12.17
2023-02-03T07:25:06.181Z,13.13
2023-02-03T07:27:32.972Z,9.27
2023-02-03T07:29:59.544Z,12.40
2023-02-03T07:32:26.253Z,13.87
2023-02-03T07:34:52.798Z,10.47
2023-02-03T07:37:19.365Z,14.30
2023-02-03T07:39:46.501Z,13.17
2023-02-03T07:42:15.784Z,10.60
2023-02-03T07:44:42.425Z,10.07
2023-02-03T07:47:10.078Z,10.00
2023-02-03T07:49:36.709Z,16.00
2023-02-03T07:52:03.491Z,13.27
2023-02-03T07:54:30.164Z,14.23
2023-02-03T07:56:56.833Z,11.73
2023-02-03T07:59:23.418Z,18.47
2023-02-03T08:01:50.209Z,11.20
2023-02-03T08:04:17.521Z,9.57
2023-02-03T08:06:44.444Z,12.23
2023-02-03T08:09:11.110Z,12.60
2023-02-03T08:11:37.687Z,18.63
2023-02-03T08:14:04.514Z,14.57
2023-02-03T08:16:31.175Z,10.50
2023-02-03T08:18:58.428Z,12.27
2023-02-03T08:21:26.029Z,12.77
2023-02-03T08:23:52.698Z,12.70
2023-02-03T08:26:19.227Z,11.40
2023-02-03T08:28:50.306Z,11.60
2023-02-03T08:31:17.034Z,13.63
2023-02-03T08:33:43.833Z,13.23
2023-02-03T08:36:11.421Z,10.13
2023-02-03T08:38:39.540Z,10.00
2023-02-03T08:41:20.091Z,14.83
2023-02-03T08:43:50.016Z,11.00
2023-02-03T08:46:16.639Z,13.87
2023-02-03T08:48:43.215Z,10.40
2023-02-03T08:51:15.292Z,12.60
2023-02-03T08:53:41.891Z,10.80
2023-02-03T08:56:10.585Z,13.33
2023-02-03T08:58:38.723Z,14.40
2023-02-03T09:01:14.787Z,13.07
2023-02-03T09:03:41.619Z,13.07
2023-02-03T09:06:09.304Z,10.47
2023-02-03T09:08:35.937Z,9.47
2023-02-03T09:11:04.072Z,8.13
2023-02-03T09:13:30.836Z,13.23
2023-02-03T09:16:00.785Z,11.30
2023-02-03T09:18:27.397Z,13.43
2023-02-03T09:21:04.823Z,10.77
2023-02-03T09:23:31.937Z,15.77
2023-02-03T09:26:02.758Z,8.87
2023-02-03T09:28:29.651Z,10.90
2023-02-03T09:31:06.893Z,15.17
2023-02-03T09:33:34.477Z,13.20
2023-02-03T09:36:01.238Z,12.40
2023-02-03T09:38:28.363Z,16.10
2023-02-03T09:41:10.418Z,10.57
2023-02-03T09:44:00.240Z,14.77
2023-02-03T09:46:29.453Z,10.47
2023-02-03T09:49:12.335Z,13.10
2023-02-03T09:51:52.501Z,15.40
2023-02-03T09:54:24.080Z,14.20
2023-02-03T09:56:53.649Z,15.17
2023-02-03T09:59:20.358Z,13.97
2023-02-03T10:02:09.638Z,8.47
2023-02-03T10:04:40.140Z,10.00
2023-02-03T10:07:38.452Z,11.17
2023-02-03T10:10:18.911Z,15.33
2023-02-03T10:12:48.699Z,11.63
2023-02-03T10:15:24.390Z,15.30
2023-02-03T10:17:57.629Z,11.27
2023-02-03T10:20:35.983Z,11.57
2023-02-03T10:23:07.356Z,9.30
2023-02-03T10:25:36.238Z,12.23
2023-02-03T10:28:05.372Z,12.43
2023-02-03T10:30:38.436Z,10.10
2023-02-03T10:33:17.725Z,10.83
2023-02-03T10:35:51.522Z,13.20
2023-02-03T10:38:46.278Z,13.80
2023-02-03T10:41:13.252Z,19.03
2023-02-03T10:43:49.010Z,15.13
2023-02-03T10:46:16.569Z,12.13
2023-02-03T10:48:43.345Z,17.00
2023-02-03T10:51:22.975Z,18.30
2023-02-03T10:53:53.361Z,14.93
2023-02-03T10:56:30.410Z,11.10
2023-02-03T10:58:59.262Z,11.80
2023-02-03T11:01:47.759Z,11.63
2023-02-03T11:04:31.810Z,11.10
2023-02-03T11:07:03.837Z,15.67
2023-02-03T11:09:43.976Z,10.97
2023-02-03T11:12:20.426Z,18.47
2023-02-03T11:14:49.381Z,11.10
2023-02-03T11:17:31.004Z,13.70
2023-02-03T11:20:04.842Z,11.77
2023-02-03T11:22:35.987Z,15.67
2023-02-03T11:25:04.311Z,16.60
2023-02-03T11:27:32.253Z,12.27
2023-02-03T11:30:11.711Z,13.07
2023-02-03T11:32:41.792Z,12.60
2023-02-03T11:35:29.665Z,11.20
2023-02-03T11:37:58.378Z,10.57
2023-02-03T11:40:27.256Z,14.03
2023-02-03T11:42:57.075Z,17.20
2023-02-03T11:45:29.706Z,13.40
2023-02-03T11:48:24.169Z,10.13
2023-02-03T11:50:55.157Z,13.73
2023-02-03T11:53:31.205Z,19.03
2023-02-03T11:56:28.280Z,13.27
2023-02-03T11:59:16.826Z,11.53
2023-02-03T12:02:23.177Z,14.33
2023-02-03T12:05:07.336Z,15.27
2023-02-03T12:07:46.019Z,15.13
2023-02-03T12:10:56.264Z,10.97
2023-02-03T12:13:34.767Z,13.77
2023-02-03T12:16:04.668Z,9.17
2023-02-03T12:18:34.215Z,14.67
2023-02-03T12:21:36.414Z,13.47
2023-02-03T12:24:12.074Z,10.07
2023-02-03T12:26:48.323Z,10.93
2023-02-03T12:29:18.117Z,16.40
2023-02-03T12:32:10.927Z,12.87
2023-02-03T12:34:41.542Z,12.83
2023-02-03T12:37:14.152Z,10.00
2023-02-03T12:39:45.133Z,13.27
2023-02-03T12:42:26.579Z,14.67
2023-02-03T12:45:09.484Z,10.90
2023-02-03T12:47:37.427Z,11.37
2023-02-03T12:50:15.463Z,12.63
2023-02-03T12:52:49.948Z,9.47
2023-02-03T12:55:31.888Z,12.63
2023-02-03T12:58:01.946Z,13.70
2023-02-03T13:00:45.976Z,13.50
2023-02-03T13:03:18.885Z,25.13
2023-02-03T13:05:51.018Z,13.47
2023-02-03T13:08:17.832Z,22.77
2023-02-03T13:10:55.868Z,11.87
2023-02-03T13:13:35.168Z,11.90
2023-02-03T13:16:03.329Z,11.40
2023-02-03T13:18:36.346Z,13.07
2023-02-03T13:21:03.048Z,12.03
2023-02-03T13:23:29.699Z,10.90
2023-02-03T13:26:11.462Z,16.00
2023-02-03T13:29:03.295Z,10.70
2023-02-03T13:31:36.262Z,8.43
2023-02-03T13:34:21.706Z,12.50
2023-02-03T13:37:18.945Z,14.53
2023-02-03T13:39:57.282Z,16.73
2023-02-03T13:42:32.487Z,21.80
2023-02-03T13:45:05.148Z,12.30
2023-02-03T13:47:32.496Z,23.03
2023-02-03T13:50:06.123Z,24.23
2023-02-03T13:52:46.634Z,14.50
2023-02-03T13:55:52.091Z,16.87
2023-02-03T13:58:22.081Z,26.60
2023-02-03T14:00:51.849Z,19.53
2023-02-03T14:03:24.344Z,16.03
2023-02-03T14:05:55.265Z,17.37
2023-02-03T14:08:27.941Z,19.47
2023-02-03T14:11:32.371Z,17.17
2023-02-03T14:14:08.469Z,26.73
2023-02-03T14:16:36.486Z,22.07
2023-02-03T14:19:04.177Z,26.77
2023-02-03T14:21:43.262Z,20.87
2023-02-03T14:24:11.245Z,18.53
2023-02-03T14:26:50.824Z,22.70
2023-02-03T14:29:35.269Z,20.33
2023-02-03T14:32:09.424Z,24.10
2023-02-03T14:34:48.233Z,20.43
2023-02-03T14:37:27.363Z,22.13
2023-02-03T14:40:11.387Z,20.13
2023-02-03T14:43:10.198Z,19.97
2023-02-03T14:45:51.727Z,28.23
2023-02-03T14:48:33.327Z,24.83
2023-02-03T14:51:12.319Z,24.43
2023-02-03T14:53:57.474Z,27.53
2023-02-03T14:57:05.869Z,27.53
2023-02-03T14:59:59.778Z,20.87
2023-02-03T15:02:28.618Z,22.80
2023-02-03T15:05:31.102Z,18.10
2023-02-03T15:07:57.964Z,23.77
2023-02-03T15:10:30.118Z,20.50
2023-02-03T15:12:58.459Z,23.47
2023-02-03T15:15:28.049Z,23.37
2023-02-03T15:17:57.212Z,25.03
2023-02-03T15:20:35.069Z,23.07
2023-02-03T15:23:03.185Z,22.73
2023-02-03T15:25:31.284Z,22.07
2023-02-03T15:28:13.951Z,23.20
2023-02-03T15:30:41.595Z,31.83
2023-02-03T15:33:14.244Z,17.70
2023-02-03T15:35:42.540Z,25.17
2023-02-03T15:38:19.880Z,28.00
2023-02-03T15:40:53.447Z,26.10
2023-02-03T15:43:30.043Z,21.43
2023-02-03T15:46:07.704Z,27.90
2023-02-03T15:48:51.066Z,30.97
2023-02-03T15:51:22.038Z,30.30
2023-02-03T15:53:51.699Z,27.23
2023-02-03T15:56:26.865Z,29.70
2023-02-03T15:58:53.820Z,23.40
2023-02-03T16:01:23.600Z,24.83
2023-02-03T16:03:52.975Z,23.03
2023-02-03T16:06:36.002Z,21.77
2023-02-03T16:09:07.150Z,23.10
2023-02-03T16:11:38.560Z,24.97
2023-02-03T16:14:07.692Z,25.37
2023-02-03T16:16:37.419Z,23.50
2023-02-03T16:19:07.764Z,26.90
2023-02-03T16:21:52.042Z,21.93
2023-02-03T16:24:38.959Z,29.57
2023-02-03T16:27:27.832Z,19.00
2023-02-03T16:30:33.511Z,27.23
2023-02-03T16:33:28.196Z,24.83
2023-02-03T16:36:14.949Z,19.30
2023-02-03T16:39:09.373Z,32.90
2023-02-03T16:41:55.705Z,20.13
2023-02-03T16:44:40.836Z,22.00
2023-02-03T16:47:56.571Z,23.00
2023-02-03T16:50:43.391Z,21.07
2023-02-03T16:53:14.245Z,26.90
2023-02-03T16:55:42.039Z,18.93
2023-02-03T16:58:09.698Z,28.97
2023-02-03T17:00:36.473Z,25.37
2023-02-03T17:03:04.703Z,27.30
2023-02-03T17:05:32.106Z,22.30
2023-02-03T17:07:59.292Z,22.70
2023-02-03T17:10:26.531Z,23.67
2023-02-03T17:12:53.575Z,24.13
2023-02-03T17:15:20.205Z,21.93
2023-02-03T17:17:47.218Z,19.57
2023-02-03T17:20:14.083Z,19.63
2023-02-03T17:22:40.847Z,24.80
2023-02-03T17:25:08.151Z,25.83
2023-02-03T17:27:35.048Z,22.47
2023-02-03T17:30:02.567Z,22.93
2023-02-03T17:32:29.443Z,21.43
2023-02-03T17:34:56.035Z,24.93
2023-02-03T17:37:22.646Z,26.10
2023-02-03T17:53:33.112Z,25.03
2023-02-03T17:56:06.311Z,27.13
2023-02-03T17:58:33.112Z,29.60
2023-02-03T18:00:59.795Z,23.10
2023-02-03T18:03:26.545Z,21.77
2023-02-03T18:05:53.352Z,35.63
2023-02-03T18:08:20.567Z,26.77
2023-02-03T18:10:51.216Z,24.40
2023-02-03T18:13:18.559Z,22.63
2023-02-03T18:15:45.214Z,19.80
2023-02-03T18:18:11.867Z,26.40
2023-02-03T18:20:38.700Z,25.57
2023-02-03T18:23:05.802Z,22.70
2023-02-03T18:25:35.478Z,20.60
2023-02-03T18:28:01.989Z,27.53
2023-02-03T18:30:28.966Z,22.00
2023-02-03T18:32:56.138Z,25.30
2023-02-03T18:35:22.959Z,16.57
2023-02-03T18:37:49.718Z,27.40
2023-02-03T18:40:16.864Z,28.43
2023-02-03T18:42:43.689Z,22.90
2023-02-03T18:45:11.678Z,22.37
2023-02-03T18:47:38.518Z,21.93
2023-02-03T18:50:05.467Z,28.33
2023-02-03T18:52:32.004Z,31.90
2023-02-03T18:54:58.581Z,29.97
2023-02-03T18:57:26.353Z,25.23
2023-02-03T18:59:53.253Z,26.67
2023-02-03T19:02:21.688Z,25.07
2023-02-03T19:04:49.157Z,35.27
2023-02-03T19:07:15.791Z,28.27
2023-02-03T19:09:42.562Z,23.53
2023-02-03T19:12:09.497Z,26.47
2023-02-03T19:14:36.523Z,25.13
2023-02-03T19:17:03.700Z,27.33
2023-02-03T19:19:30.687Z,27.40
2023-02-03T19:21:58.656Z,30.27
2023-02-03T19:24:26.838Z,37.07
2023-02-03T19:26:54.104Z,35.47
2023-02-03T19:29:21.062Z,23.63
2023-02-03T19:31:47.870Z,26.23
2023-02-03T19:34:17.848Z,34.00
2023-02-03T19:36:46.879Z,29.57
2023-02-03T19:39:14.375Z,34.60
2023-02-03T19:41:41.642Z,27.03
2023-02-03T19:44:08.428Z,33.20
2023-02-03T19:46:41.811Z,24.17
2023-02-03T19:49:13.217Z,31.97
2023-02-03T19:51:40.293Z,30.63
2023-02-03T19:54:07.235Z,32.23
2023-02-03T19:56:33.933Z,26.57
2023-02-03T19:59:00.812Z,19.37
2023-02-03T20:01:29.030Z,27.63
2023-02-03T20:03:55.675Z,33.80
2023-02-03T20:06:23.432Z,27.67
2023-02-03T20:08:50.027Z,34.20
2023-02-03T20:11:16.836Z,33.93
2023-02-03T20:13:43.504Z,31.60
2023-02-03T20:16:10.440Z,32.50
2023-02-03T20:18:37.092Z,22.07
2023-02-03T20:21:04.883Z,34.93
2023-02-03T20:23:32.336Z,23.53
2023-02-03T20:25:59.235Z,26.97
2023-02-03T20:28:27.743Z,21.97
2023-02-03T20:30:56.760Z,32.27
2023-02-03T20:33:26.138Z,31.77
2023-02-03T20:35:54.269Z,22.53
2023-02-03T20:38:21.369Z,24.93
2023-02-03T20:40:48.405Z,29.30
2023-02-03T20:43:25.345Z,23.73
2023-02-03T20:45:52.330Z,32.97
2023-02-03T20:48:22.562Z,29.30
2023-02-03T20:50:50.293Z,21.40
2023-02-03T20:53:24.176Z,27.27
2023-02-03T20:55:51.253Z,26.80
2023-02-03T20:58:32.870Z,28.30
2023-02-03T21:01:00.071Z,25.80
2023-02-03T21:03:45.567Z,27.67
2023-02-03T21:06:17.350Z,25.50
2023-02-03T21:08:45.656Z,26.17
2023-02-03T21:11:20.480Z,22.67
2023-02-03T21:13:50.104Z,20.90
2023-02-03T21:16:20.699Z,28.67
2023-02-03T21:18:47.256Z,30.17
2023-02-03T21:21:15.774Z,24.63
2023-02-03T21:23:47.180Z,24.80
2023-02-03T21:26:23.154Z,33.03
2023-02-03T21:28:51.703Z,27.20
2023-02-03T21:31:32.435Z,25.37
2023-02-03T21:34:01.621Z,19.13
2023-02-03T21:36:31.293Z,23.00
2023-02-03T21:39:01.843Z,19.77
2023-02-03T21:41:33.477Z,24.37
2023-02-03T21:44:00.224Z,24.63
2023-02-03T21:46:33.932Z,26.93
2023-02-03T21:49:02.000Z,21.23
2023-02-03T21:51:39.637Z,23.27
2023-02-03T21:54:27.240Z,18.57
2023-02-03T21:56:54.631Z,24.60
2023-02-03T21:59:26.112Z,25.80
2023-02-03T22:01:55.649Z,28.53
2023-02-03T22:04:22.344Z,27.43
2023-02-03T22:06:50.937Z,24.37
2023-02-03T22:09:19.685Z,24.20
2023-02-03T22:11:46.829Z,32.10
2023-02-03T22:14:14.731Z,25.53
2023-02-03T22:16:41.541Z,32.83
2023-02-03T22:19:08.740Z,26.73
2023-02-03T22:21:35.757Z,21.67
2023-02-03T22:24:02.599Z,24.60
2023-02-03T22:26:31.456Z,23.83
2023-02-03T22:28:58.262Z,26.60
2023-02-03T22:31:25.098Z,26.73
2023-02-03T22:33:51.796Z,26.07
2023-02-03T22:36:18.640Z,24.87
2023-02-03T22:38:45.251Z,26.60
2023-02-03T22:41:13.024Z,25.87
2023-02-03T22:43:40.488Z,23.23
2023-02-03T22:46:07.796Z,26.40
2023-02-03T22:48:35.104Z,23.20
2023-02-03T22:51:02.136Z,27.37
2023-02-03T22:53:29.114Z,26.03
2023-02-03T22:55:55.793Z,26.83
2023-02-03T22:58:22.756Z,29.07
2023-02-03T23:00:49.562Z,22.07
2023-02-03T23:03:16.358Z,25.70
2023-02-03T23:05:42.984Z,28.80
2023-02-03T23:08:09.862Z,29.60
2023-02-03T23:10:37.164Z,30.80
2023-02-03T23:13:04.080Z,20.13
2023-02-03T23:15:30.891Z,27.67
2023-02-03T23:17:57.585Z,29.80
2023-02-03T23:20:24.244Z,33.77
2023-02-03T23:22:51.273Z,26.57
2023-02-03T23:25:17.926Z,32.10
2023-02-03T23:27:44.768Z,31.27
2023-02-03T23:30:12.102Z,27.53
2023-02-03T23:32:38.748Z,29.77
2023-02-03T23:35:24.457Z,34.40
2023-02-03T23:37:51.248Z,29.87
2023-02-03T23:40:18.062Z,24.40
2023-02-03T23:42:44.656Z,29.57
2023-02-03T23:45:12.731Z,24.53
2023-02-03T23:47:40.948Z,26.67
2023-02-03T23:50:11.767Z,25.17
2023-02-03T23:52:38.362Z,34.13
2023-02-03T23:55:11.170Z,34.07
2023-02-03T23:57:37.889Z,28.30
